sensor_id;sensor_type;location;lat;lon;timestamp;P1;durP1;ratioP1;P2;durP2;ratioP2
74656;SDS011;63185;45.642;13.764;2024-01-06T00:01:38;12.80;;;3.33;;
74656;SDS011;63185;45.642;13.764;2024-01-06T00:04:04;15.43;;;4.07;;
74656;SDS011;63185;45.642;13.764;2024-01-06T00:06:30;13.25;;;3.95;;
74656;SDS011;63185;45.642;13.764;2024-01-06T00:08:55;13.82;;;3.95;;
74656;SDS011;63185;45.642;13.764;2024-01-06T00:11:21;18.40;;;4.18;;
74656;SDS011;63185;45.642;13.764;2024-01-06T00:13:47;13.88;;;4.15;;
74656;SDS011;63185;45.642;13.764;2024-01-06T00:16:16;18.15;;;4.40;;
74656;SDS011;63185;45.642;13.764;2024-01-06T00:18:43;14.55;;;4.53;;
74656;SDS011;63185;45.642;13.764;2024-01-06T00:21:09;21.58;;;5.10;;
74656;SDS011;63185;45.642;13.764;2024-01-06T00:23:35;16.88;;;5.53;;
74656;SDS011;63185;45.642;13.764;2024-01-06T00:26:00;23.05;;;5.40;;
74656;SDS011;63185;45.642;13.764;2024-01-06T00:28:27;22.83;;;5.45;;
74656;SDS011;63185;45.642;13.764;2024-01-06T00:30:53;19.80;;;4.60;;
74656;SDS011;63185;45.642;13.764;2024-01-06T00:33:18;22.45;;;6.40;;
74656;SDS011;63185;45.642;13.764;2024-01-06T00:35:44;24.60;;;6.30;;
74656;SDS011;63185;45.642;13.764;2024-01-06T00:38:10;24.35;;;6.47;;
74656;SDS011;63185;45.642;13.764;2024-01-06T00:40:35;27.90;;;9.35;;
74656;SDS011;63185;45.642;13.764;2024-01-06T00:43:02;29.25;;;7.95;;
74656;SDS011;63185;45.642;13.764;2024-01-06T00:45:27;27.52;;;7.03;;
74656;SDS011;63185;45.642;13.764;2024-01-06T00:47:53;33.60;;;8.60;;
74656;SDS011;63185;45.642;13.764;2024-01-06T00:50:19;28.23;;;7.47;;
74656;SDS011;63185;45.642;13.764;2024-01-06T00:52:45;29.70;;;7.45;;
74656;SDS011;63185;45.642;13.764;2024-01-06T00:55:10;30.00;;;6.70;;
74656;SDS011;63185;45.642;13.764;2024-01-06T00:57:36;27.73;;;7.30;;
74656;SDS011;63185;45.642;13.764;2024-01-06T01:00:03;29.58;;;7.13;;
74656;SDS011;63185;45.642;13.764;2024-01-06T01:02:30;21.92;;;6.05;;
74656;SDS011;63185;45.642;13.764;2024-01-06T01:04:56;25.33;;;6.05;;
74656;SDS011;63185;45.642;13.764;2024-01-06T01:07:22;31.52;;;6.07;;
74656;SDS011;63185;45.642;13.764;2024-01-06T01:09:48;25.80;;;6.00;;
74656;SDS011;63185;45.642;13.764;2024-01-06T01:12:14;28.75;;;5.97;;
74656;SDS011;63185;45.642;13.764;2024-01-06T01:14:39;27.30;;;5.70;;
74656;SDS011;63185;45.642;13.764;2024-01-06T01:17:05;27.80;;;5.63;;
74656;SDS011;63185;45.642;13.764;2024-01-06T01:19:31;27.85;;;5.68;;
74656;SDS011;63185;45.642;13.764;2024-01-06T01:21:57;29.02;;;5.60;;
74656;SDS011;63185;45.642;13.764;2024-01-06T01:24:22;20.33;;;5.78;;
74656;SDS011;63185;45.642;13.764;2024-01-06T01:26:48;34.38;;;6.32;;
74656;SDS011;63185;45.642;13.764;2024-01-06T01:29:15;24.15;;;5.75;;
74656;SDS011;63185;45.642;13.764;2024-01-06T01:31:41;30.40;;;5.65;;
74656;SDS011;63185;45.642;13.764;2024-01-06T01:34:07;25.75;;;5.43;;
74656;SDS011;63185;45.642;13.764;2024-01-06T01:36:33;27.35;;;5.80;;
74656;SDS011;63185;45.642;13.764;2024-01-06T01:38:58;29.42;;;5.63;;
74656;SDS011;63185;45.642;13.764;2024-01-06T01:41:24;24.42;;;6.07;;
74656;SDS011;63185;45.642;13.764;2024-01-06T01:43:50;23.83;;;5.50;;
74656;SDS011;63185;45.642;13.764;2024-01-06T01:46:24;23.63;;;5.93;;
74656;SDS011;63185;45.642;13.764;2024-01-06T01:48:51;26.88;;;5.78;;
74656;SDS011;63185;45.642;13.764;2024-01-06T01:51:18;22.98;;;5.63;;
74656;SDS011;63185;45.642;13.764;2024-01-06T01:53:45;23.73;;;6.35;;
74656;SDS011;63185;45.642;13.764;2024-01-06T01:56:10;23.00;;;5.57;;
74656;SDS011;63185;45.642;13.764;2024-01-06T01:58:36;25.75;;;6.63;;
74656;SDS011;63185;45.642;13.764;2024-01-06T02:01:03;24.80;;;6.03;;
74656;SDS011;63185;45.642;13.764;2024-01-06T02:03:29;32.38;;;8.63;;
74656;SDS011;63185;45.642;13.764;2024-01-06T02:05:55;24.08;;;6.68;;
74656;SDS011;63185;45.642;13.764;2024-01-06T02:08:21;23.60;;;7.00;;
74656;SDS011;63185;45.642;13.764;2024-01-06T02:10:47;21.98;;;6.63;;
74656;SDS011;63185;45.642;13.764;2024-01-06T02:13:13;19.13;;;5.20;;
74656;SDS011;63185;45.642;13.764;2024-01-06T02:15:39;23.35;;;5.75;;
74656;SDS011;63185;45.642;13.764;2024-01-06T02:18:05;24.88;;;5.95;;
74656;SDS011;63185;45.642;13.764;2024-01-06T02:20:30;24.13;;;6.30;;
74656;SDS011;63185;45.642;13.764;2024-01-06T02:22:56;23.17;;;6.00;;
74656;SDS011;63185;45.642;13.764;2024-01-06T02:25:24;20.08;;;5.80;;
74656;SDS011;63185;45.642;13.764;2024-01-06T02:27:50;27.27;;;6.65;;
74656;SDS011;63185;45.642;13.764;2024-01-06T02:30:15;19.60;;;5.28;;
74656;SDS011;63185;45.642;13.764;2024-01-06T02:32:41;24.40;;;5.85;;
74656;SDS011;63185;45.642;13.764;2024-01-06T02:35:07;26.17;;;6.18;;
74656;SDS011;63185;45.642;13.764;2024-01-06T02:37:33;20.88;;;5.60;;
74656;SDS011;63185;45.642;13.764;2024-01-06T02:39:58;17.25;;;4.70;;
74656;SDS011;63185;45.642;13.764;2024-01-06T02:42:24;22.88;;;6.28;;
74656;SDS011;63185;45.642;13.764;2024-01-06T02:44:50;23.17;;;5.72;;
74656;SDS011;63185;45.642;13.764;2024-01-06T02:47:16;21.50;;;4.60;;
74656;SDS011;63185;45.642;13.764;2024-01-06T02:49:41;22.35;;;4.85;;
74656;SDS011;63185;45.642;13.764;2024-01-06T02:52:07;19.25;;;4.00;;
74656;SDS011;63185;45.642;13.764;2024-01-06T02:54:33;23.80;;;5.18;;
74656;SDS011;63185;45.642;13.764;2024-01-06T02:56:58;21.08;;;5.00;;
74656;SDS011;63185;45.642;13.764;2024-01-06T02:59:24;14.73;;;4.10;;
74656;SDS011;63185;45.642;13.764;2024-01-06T03:01:50;15.57;;;4.10;;
74656;SDS011;63185;45.642;13.764;2024-01-06T03:04:15;15.48;;;3.80;;
74656;SDS011;63185;45.642;13.764;2024-01-06T03:06:41;15.35;;;4.20;;
74656;SDS011;63185;45.642;13.764;2024-01-06T03:09:07;20.40;;;4.55;;
74656;SDS011;63185;45.642;13.764;2024-01-06T03:11:33;18.92;;;4.53;;
74656;SDS011;63185;45.642;13.764;2024-01-06T03:13:59;12.02;;;3.75;;
74656;SDS011;63185;45.642;13.764;2024-01-06T03:16:24;12.85;;;3.67;;
74656;SDS011;63185;45.642;13.764;2024-01-06T03:18:50;18.25;;;4.93;;
74656;SDS011;63185;45.642;13.764;2024-01-06T03:21:16;13.27;;;3.97;;
74656;SDS011;63185;45.642;13.764;2024-01-06T03:23:43;14.93;;;3.78;;
74656;SDS011;63185;45.642;13.764;2024-01-06T03:26:08;16.23;;;4.53;;
74656;SDS011;63185;45.642;13.764;2024-01-06T03:28:34;16.75;;;4.85;;
74656;SDS011;63185;45.642;13.764;2024-01-06T03:31:00;16.30;;;4.25;;
74656;SDS011;63185;45.642;13.764;2024-01-06T03:33:25;17.35;;;4.53;;
74656;SDS011;63185;45.642;13.764;2024-01-06T03:35:51;20.88;;;4.88;;
74656;SDS011;63185;45.642;13.764;2024-01-06T03:38:16;17.42;;;5.00;;
74656;SDS011;63185;45.642;13.764;2024-01-06T03:40:42;21.33;;;5.00;;
74656;SDS011;63185;45.642;13.764;2024-01-06T03:43:08;19.38;;;5.30;;
74656;SDS011;63185;45.642;13.764;2024-01-06T03:45:33;15.88;;;4.63;;
74656;SDS011;63185;45.642;13.764;2024-01-06T03:47:59;17.17;;;5.30;;
74656;SDS011;63185;45.642;13.764;2024-01-06T03:50:25;16.90;;;4.90;;
74656;SDS011;63185;45.642;13.764;2024-01-06T03:52:50;17.17;;;4.38;;
74656;SDS011;63185;45.642;13.764;2024-01-06T03:55:16;17.77;;;4.53;;
74656;SDS011;63185;45.642;13.764;2024-01-06T03:57:42;17.58;;;4.78;;
74656;SDS011;63185;45.642;13.764;2024-01-06T04:00:08;18.05;;;4.72;;
74656;SDS011;63185;45.642;13.764;2024-01-06T04:02:33;16.90;;;4.93;;
74656;SDS011;63185;45.642;13.764;2024-01-06T04:04:59;20.08;;;4.15;;
74656;SDS011;63185;45.642;13.764;2024-01-06T04:07:25;18.15;;;4.63;;
74656;SDS011;63185;45.642;13.764;2024-01-06T04:09:50;16.05;;;4.28;;
74656;SDS011;63185;45.642;13.764;2024-01-06T04:12:16;14.50;;;4.38;;
74656;SDS011;63185;45.642;13.764;2024-01-06T04:14:42;17.98;;;4.40;;
74656;SDS011;63185;45.642;13.764;2024-01-06T04:17:08;15.98;;;4.30;;
74656;SDS011;63185;45.642;13.764;2024-01-06T04:19:34;14.43;;;4.65;;
74656;SDS011;63185;45.642;13.764;2024-01-06T04:21:59;18.80;;;5.25;;
74656;SDS011;63185;45.642;13.764;2024-01-06T04:24:25;17.90;;;5.30;;
74656;SDS011;63185;45.642;13.764;2024-01-06T04:26:51;14.15;;;5.00;;
74656;SDS011;63185;45.642;13.764;2024-01-06T04:29:16;20.65;;;5.47;;
74656;SDS011;63185;45.642;13.764;2024-01-06T04:31:42;17.13;;;4.85;;
74656;SDS011;63185;45.642;13.764;2024-01-06T04:34:08;18.30;;;5.18;;
74656;SDS011;63185;45.642;13.764;2024-01-06T04:36:33;15.98;;;4.63;;
74656;SDS011;63185;45.642;13.764;2024-01-06T04:38:59;12.85;;;4.40;;
74656;SDS011;63185;45.642;13.764;2024-01-06T04:41:25;19.58;;;4.70;;
74656;SDS011;63185;45.642;13.764;2024-01-06T04:43:50;13.80;;;4.50;;
74656;SDS011;63185;45.642;13.764;2024-01-06T04:46:16;13.40;;;4.65;;
74656;SDS011;63185;45.642;13.764;2024-01-06T04:48:41;14.10;;;4.40;;
74656;SDS011;63185;45.642;13.764;2024-01-06T04:51:08;14.02;;;4.35;;
74656;SDS011;63185;45.642;13.764;2024-01-06T04:53:38;12.82;;;4.35;;
74656;SDS011;63185;45.642;13.764;2024-01-06T04:56:04;14.55;;;3.45;;
74656;SDS011;63185;45.642;13.764;2024-01-06T04:58:30;13.52;;;4.07;;
74656;SDS011;63185;45.642;13.764;2024-01-06T05:00:55;13.55;;;3.65;;
74656;SDS011;63185;45.642;13.764;2024-01-06T05:03:21;11.15;;;4.15;;
74656;SDS011;63185;45.642;13.764;2024-01-06T05:05:47;16.27;;;3.90;;
74656;SDS011;63185;45.642;13.764;2024-01-06T05:08:12;9.82;;;3.15;;
74656;SDS011;63185;45.642;13.764;2024-01-06T05:10:38;18.52;;;3.33;;
74656;SDS011;63185;45.642;13.764;2024-01-06T05:13:04;10.48;;;3.38;;
74656;SDS011;63185;45.642;13.764;2024-01-06T05:15:29;12.07;;;3.78;;
74656;SDS011;63185;45.642;13.764;2024-01-06T05:17:55;10.65;;;3.28;;
74656;SDS011;63185;45.642;13.764;2024-01-06T05:20:21;14.40;;;3.40;;
74656;SDS011;63185;45.642;13.764;2024-01-06T05:22:46;13.02;;;3.80;;
74656;SDS011;63185;45.642;13.764;2024-01-06T05:25:12;15.35;;;3.75;;
74656;SDS011;63185;45.642;13.764;2024-01-06T05:27:37;11.65;;;3.28;;
74656;SDS011;63185;45.642;13.764;2024-01-06T05:30:03;9.85;;;3.38;;
74656;SDS011;63185;45.642;13.764;2024-01-06T05:32:29;16.92;;;3.58;;
74656;SDS011;63185;45.642;13.764;2024-01-06T05:34:55;14.73;;;3.22;;
74656;SDS011;63185;45.642;13.764;2024-01-06T05:37:21;13.52;;;3.88;;
74656;SDS011;63185;45.642;13.764;2024-01-06T05:39:46;15.77;;;4.05;;
74656;SDS011;63185;45.642;13.764;2024-01-06T05:42:12;13.68;;;4.05;;
74656;SDS011;63185;45.642;13.764;2024-01-06T05:44:39;15.15;;;3.50;;
74656;SDS011;63185;45.642;13.764;2024-01-06T05:47:06;15.45;;;3.97;;
74656;SDS011;63185;45.642;13.764;2024-01-06T05:49:33;17.85;;;4.13;;
74656;SDS011;63185;45.642;13.764;2024-01-06T05:51:58;13.68;;;3.40;;
74656;SDS011;63185;45.642;13.764;2024-01-06T05:54:24;14.48;;;3.90;;
74656;SDS011;63185;45.642;13.764;2024-01-06T05:56:50;14.68;;;4.05;;
74656;SDS011;63185;45.642;13.764;2024-01-06T05:59:16;14.68;;;4.10;;
74656;SDS011;63185;45.642;13.764;2024-01-06T06:01:42;18.15;;;3.85;;
74656;SDS011;63185;45.642;13.764;2024-01-06T06:04:08;18.65;;;4.47;;
74656;SDS011;63185;45.642;13.764;2024-01-06T06:06:35;15.15;;;4.43;;
74656;SDS011;63185;45.642;13.764;2024-01-06T06:09:00;17.95;;;3.80;;
74656;SDS011;63185;45.642;13.764;2024-01-06T06:11:31;16.02;;;3.92;;
74656;SDS011;63185;45.642;13.764;2024-01-06T06:13:57;14.65;;;4.53;;
74656;SDS011;63185;45.642;13.764;2024-01-06T06:16:23;17.13;;;4.70;;
74656;SDS011;63185;45.642;13.764;2024-01-06T06:18:49;20.80;;;5.15;;
74656;SDS011;63185;45.642;13.764;2024-01-06T06:21:14;18.90;;;4.97;;
74656;SDS011;63185;45.642;13.764;2024-01-06T06:23:41;18.35;;;4.78;;
74656;SDS011;63185;45.642;13.764;2024-01-06T06:26:06;18.00;;;4.80;;
74656;SDS011;63185;45.642;13.764;2024-01-06T06:28:33;20.30;;;5.63;;
74656;SDS011;63185;45.642;13.764;2024-01-06T06:30:59;16.25;;;4.70;;
74656;SDS011;63185;45.642;13.764;2024-01-06T06:33:25;15.80;;;5.05;;
74656;SDS011;63185;45.642;13.764;2024-01-06T06:35:51;18.05;;;5.32;;
74656;SDS011;63185;45.642;13.764;2024-01-06T06:38:17;18.75;;;5.28;;
74656;SDS011;63185;45.642;13.764;2024-01-06T06:40:42;17.70;;;4.93;;
74656;SDS011;63185;45.642;13.764;2024-01-06T06:43:08;14.43;;;5.18;;
74656;SDS011;63185;45.642;13.764;2024-01-06T06:45:34;14.70;;;5.00;;
74656;SDS011;63185;45.642;13.764;2024-01-06T06:48:00;17.48;;;5.07;;
74656;SDS011;63185;45.642;13.764;2024-01-06T06:50:25;20.00;;;4.93;;
74656;SDS011;63185;45.642;13.764;2024-01-06T06:52:51;19.88;;;5.43;;
74656;SDS011;63185;45.642;13.764;2024-01-06T06:55:17;19.05;;;4.95;;
74656;SDS011;63185;45.642;13.764;2024-01-06T06:57:43;10.60;;;4.35;;
74656;SDS011;63185;45.642;13.764;2024-01-06T07:00:09;16.15;;;4.47;;
74656;SDS011;63185;45.642;13.764;2024-01-06T07:02:35;14.30;;;4.35;;
74656;SDS011;63185;45.642;13.764;2024-01-06T07:05:01;17.42;;;5.10;;
74656;SDS011;63185;45.642;13.764;2024-01-06T07:07:27;14.73;;;4.82;;
74656;SDS011;63185;45.642;13.764;2024-01-06T07:09:53;13.77;;;5.25;;
74656;SDS011;63185;45.642;13.764;2024-01-06T07:12:19;17.20;;;5.15;;
74656;SDS011;63185;45.642;13.764;2024-01-06T07:14:44;15.55;;;4.75;;
74656;SDS011;63185;45.642;13.764;2024-01-06T07:17:10;17.60;;;4.97;;
74656;SDS011;63185;45.642;13.764;2024-01-06T07:19:36;16.00;;;5.13;;
74656;SDS011;63185;45.642;13.764;2024-01-06T07:22:02;14.50;;;4.82;;
74656;SDS011;63185;45.642;13.764;2024-01-06T07:24:27;13.43;;;4.45;;
74656;SDS011;63185;45.642;13.764;2024-01-06T07:26:53;17.50;;;4.82;;
74656;SDS011;63185;45.642;13.764;2024-01-06T07:29:19;13.80;;;4.43;;
74656;SDS011;63185;45.642;13.764;2024-01-06T07:31:44;13.02;;;4.40;;
74656;SDS011;63185;45.642;13.764;2024-01-06T07:34:10;14.70;;;4.78;;
74656;SDS011;63185;45.642;13.764;2024-01-06T07:36:36;16.25;;;4.55;;
74656;SDS011;63185;45.642;13.764;2024-01-06T07:39:03;12.68;;;4.65;;
74656;SDS011;63185;45.642;13.764;2024-01-06T07:41:29;11.35;;;4.88;;
74656;SDS011;63185;45.642;13.764;2024-01-06T07:43:57;13.65;;;4.53;;
74656;SDS011;63185;45.642;13.764;2024-01-06T07:46:23;17.02;;;5.45;;
74656;SDS011;63185;45.642;13.764;2024-01-06T07:48:49;15.95;;;5.40;;
74656;SDS011;63185;45.642;13.764;2024-01-06T07:51:14;16.45;;;6.03;;
74656;SDS011;63185;45.642;13.764;2024-01-06T07:53:40;14.88;;;5.13;;
74656;SDS011;63185;45.642;13.764;2024-01-06T07:56:07;12.57;;;5.07;;
74656;SDS011;63185;45.642;13.764;2024-01-06T07:58:33;17.65;;;5.57;;
74656;SDS011;63185;45.642;13.764;2024-01-06T08:00:59;14.15;;;5.22;;
74656;SDS011;63185;45.642;13.764;2024-01-06T08:03:24;14.88;;;5.82;;
74656;SDS011;63185;45.642;13.764;2024-01-06T08:05:50;14.00;;;5.00;;
74656;SDS011;63185;45.642;13.764;2024-01-06T08:08:16;13.38;;;4.43;;
74656;SDS011;63185;45.642;13.764;2024-01-06T08:10:42;14.65;;;4.78;;
74656;SDS011;63185;45.642;13.764;2024-01-06T08:13:08;18.23;;;4.47;;
74656;SDS011;63185;45.642;13.764;2024-01-06T08:15:33;12.10;;;4.47;;
74656;SDS011;63185;45.642;13.764;2024-01-06T08:17:59;16.35;;;4.93;;
74656;SDS011;63185;45.642;13.764;2024-01-06T08:20:25;15.40;;;4.43;;
74656;SDS011;63185;45.642;13.764;2024-01-06T08:22:50;11.73;;;3.90;;
74656;SDS011;63185;45.642;13.764;2024-01-06T08:25:16;12.40;;;4.72;;
74656;SDS011;63185;45.642;13.764;2024-01-06T08:27:43;14.77;;;5.05;;
74656;SDS011;63185;45.642;13.764;2024-01-06T08:30:09;11.23;;;4.50;;
74656;SDS011;63185;45.642;13.764;2024-01-06T08:32:35;13.48;;;4.70;;
74656;SDS011;63185;45.642;13.764;2024-01-06T08:35:00;12.80;;;4.75;;
74656;SDS011;63185;45.642;13.764;2024-01-06T08:37:26;14.07;;;4.40;;
74656;SDS011;63185;45.642;13.764;2024-01-06T08:39:52;13.52;;;4.88;;
74656;SDS011;63185;45.642;13.764;2024-01-06T08:42:17;13.80;;;4.68;;
74656;SDS011;63185;45.642;13.764;2024-01-06T08:44:43;10.50;;;4.78;;
74656;SDS011;63185;45.642;13.764;2024-01-06T08:47:09;12.18;;;4.32;;
74656;SDS011;63185;45.642;13.764;2024-01-06T08:49:35;9.00;;;4.32;;
74656;SDS011;63185;45.642;13.764;2024-01-06T08:52:01;12.35;;;3.90;;
74656;SDS011;63185;45.642;13.764;2024-01-06T08:54:26;11.02;;;4.55;;
74656;SDS011;63185;45.642;13.764;2024-01-06T08:56:52;10.50;;;3.88;;
74656;SDS011;63185;45.642;13.764;2024-01-06T08:59:18;9.80;;;3.65;;
74656;SDS011;63185;45.642;13.764;2024-01-06T09:01:45;9.50;;;3.90;;
74656;SDS011;63185;45.642;13.764;2024-01-06T09:04:10;12.60;;;4.20;;
74656;SDS011;63185;45.642;13.764;2024-01-06T09:06:37;11.40;;;4.20;;
74656;SDS011;63185;45.642;13.764;2024-01-06T09:09:03;14.65;;;4.07;;
74656;SDS011;63185;45.642;13.764;2024-01-06T09:11:30;10.65;;;4.28;;
74656;SDS011;63185;45.642;13.764;2024-01-06T09:13:55;9.05;;;4.00;;
74656;SDS011;63185;45.642;13.764;2024-01-06T09:16:21;9.77;;;3.83;;
74656;SDS011;63185;45.642;13.764;2024-01-06T09:18:47;13.00;;;4.45;;
74656;SDS011;63185;45.642;13.764;2024-01-06T09:21:14;10.57;;;4.15;;
74656;SDS011;63185;45.642;13.764;2024-01-06T09:23:40;13.32;;;4.63;;
74656;SDS011;63185;45.642;13.764;2024-01-06T09:26:06;13.57;;;4.68;;
74656;SDS011;63185;45.642;13.764;2024-01-06T09:28:32;10.32;;;4.32;;
74656;SDS011;63185;45.642;13.764;2024-01-06T09:30:57;15.43;;;5.07;;
74656;SDS011;63185;45.642;13.764;2024-01-06T09:33:23;14.18;;;5.13;;
74656;SDS011;63185;45.642;13.764;2024-01-06T09:35:48;12.50;;;4.68;;
74656;SDS011;63185;45.642;13.764;2024-01-06T09:38:15;16.83;;;5.55;;
74656;SDS011;63185;45.642;13.764;2024-01-06T09:40:43;9.98;;;4.88;;
74656;SDS011;63185;45.642;13.764;2024-01-06T09:43:10;10.20;;;5.07;;
74656;SDS011;63185;45.642;13.764;2024-01-06T09:45:36;14.82;;;5.43;;
74656;SDS011;63185;45.642;13.764;2024-01-06T09:48:12;13.68;;;5.00;;
74656;SDS011;63185;45.642;13.764;2024-01-06T09:50:41;18.00;;;5.40;;
74656;SDS011;63185;45.642;13.764;2024-01-06T09:53:10;15.77;;;5.10;;
74656;SDS011;63185;45.642;13.764;2024-01-06T09:55:36;11.55;;;4.78;;
74656;SDS011;63185;45.642;13.764;2024-01-06T09:58:03;15.23;;;4.95;;
74656;SDS011;63185;45.642;13.764;2024-01-06T10:00:31;16.92;;;5.50;;
74656;SDS011;63185;45.642;13.764;2024-01-06T10:02:57;13.43;;;5.22;;
74656;SDS011;63185;45.642;13.764;2024-01-06T10:05:23;12.30;;;5.40;;
74656;SDS011;63185;45.642;13.764;2024-01-06T10:07:49;14.88;;;5.22;;
74656;SDS011;63185;45.642;13.764;2024-01-06T10:10:15;15.05;;;5.18;;
74656;SDS011;63185;45.642;13.764;2024-01-06T10:12:41;17.02;;;5.50;;
74656;SDS011;63185;45.642;13.764;2024-01-06T10:15:08;15.57;;;5.43;;
74656;SDS011;63185;45.642;13.764;2024-01-06T10:17:38;18.83;;;5.60;;
74656;SDS011;63185;45.642;13.764;2024-01-06T10:20:10;19.38;;;6.20;;
74656;SDS011;63185;45.642;13.764;2024-01-06T10:22:37;14.32;;;5.97;;
74656;SDS011;63185;45.642;13.764;2024-01-06T10:25:05;15.05;;;6.05;;
74656;SDS011;63185;45.642;13.764;2024-01-06T10:27:35;18.05;;;6.80;;
74656;SDS011;63185;45.642;13.764;2024-01-06T10:30:02;19.30;;;7.07;;
74656;SDS011;63185;45.642;13.764;2024-01-06T10:32:31;17.48;;;6.80;;
74656;SDS011;63185;45.642;13.764;2024-01-06T10:34:57;18.25;;;7.07;;
74656;SDS011;63185;45.642;13.764;2024-01-06T10:37:23;17.35;;;6.32;;
74656;SDS011;63185;45.642;13.764;2024-01-06T10:40:04;17.83;;;6.47;;
74656;SDS011;63185;45.642;13.764;2024-01-06T10:42:37;16.65;;;6.22;;
74656;SDS011;63185;45.642;13.764;2024-01-06T10:45:06;23.08;;;7.85;;
74656;SDS011;63185;45.642;13.764;2024-01-06T10:50:00;20.55;;;8.73;;
74656;SDS011;63185;45.642;13.764;2024-01-06T10:52:27;21.92;;;8.45;;
74656;SDS011;63185;45.642;13.764;2024-01-06T10:54:56;23.70;;;9.57;;
74656;SDS011;63185;45.642;13.764;2024-01-06T10:57:22;27.77;;;10.38;;
74656;SDS011;63185;45.642;13.764;2024-01-06T10:59:51;31.00;;;10.93;;
74656;SDS011;63185;45.642;13.764;2024-01-06T11:02:18;29.90;;;9.35;;
74656;SDS011;63185;45.642;13.764;2024-01-06T11:04:47;23.02;;;9.38;;
74656;SDS011;63185;45.642;13.764;2024-01-06T11:07:14;25.33;;;9.07;;
74656;SDS011;63185;45.642;13.764;2024-01-06T11:12:18;21.45;;;9.32;;
74656;SDS011;63185;45.642;13.764;2024-01-06T11:14:44;22.27;;;8.95;;
74656;SDS011;63185;45.642;13.764;2024-01-06T11:17:11;17.42;;;8.48;;
74656;SDS011;63185;45.642;13.764;2024-01-06T11:22:18;18.60;;;8.45;;
74656;SDS011;63185;45.642;13.764;2024-01-06T11:29:44;19.00;;;7.97;;
74656;SDS011;63185;45.642;13.764;2024-01-06T11:40:08;28.05;;;11.93;;
74656;SDS011;63185;45.642;13.764;2024-01-06T11:42:34;21.85;;;12.20;;
74656;SDS011;63185;45.642;13.764;2024-01-06T11:45:04;28.50;;;12.38;;
74656;SDS011;63185;45.642;13.764;2024-01-06T11:47:31;21.45;;;12.40;;
74656;SDS011;63185;45.642;13.764;2024-01-06T11:49:58;23.25;;;12.85;;
74656;SDS011;63185;45.642;13.764;2024-01-06T11:52:26;18.20;;;11.73;;
74656;SDS011;63185;45.642;13.764;2024-01-06T11:54:55;22.30;;;11.40;;
74656;SDS011;63185;45.642;13.764;2024-01-06T11:57:21;20.13;;;10.60;;
74656;SDS011;63185;45.642;13.764;2024-01-06T11:59:47;20.63;;;9.50;;
74656;SDS011;63185;45.642;13.764;2024-01-06T12:02:17;19.50;;;8.52;;
74656;SDS011;63185;45.642;13.764;2024-01-06T12:04:47;19.02;;;8.70;;
74656;SDS011;63185;45.642;13.764;2024-01-06T12:07:17;16.08;;;7.22;;
74656;SDS011;63185;45.642;13.764;2024-01-06T12:09:45;19.23;;;7.57;;
74656;SDS011;63185;45.642;13.764;2024-01-06T12:12:14;20.25;;;8.05;;
74656;SDS011;63185;45.642;13.764;2024-01-06T12:14:41;22.25;;;8.73;;
74656;SDS011;63185;45.642;13.764;2024-01-06T12:17:07;19.88;;;9.07;;
74656;SDS011;63185;45.642;13.764;2024-01-06T12:19:34;18.27;;;7.00;;
74656;SDS011;63185;45.642;13.764;2024-01-06T12:22:00;22.10;;;6.97;;
74656;SDS011;63185;45.642;13.764;2024-01-06T12:24:27;18.20;;;6.63;;
74656;SDS011;63185;45.642;13.764;2024-01-06T12:26:55;16.50;;;6.25;;
74656;SDS011;63185;45.642;13.764;2024-01-06T12:29:22;17.58;;;5.88;;
74656;SDS011;63185;45.642;13.764;2024-01-06T12:31:47;12.05;;;5.15;;
74656;SDS011;63185;45.642;13.764;2024-01-06T12:34:13;13.98;;;5.50;;
74656;SDS011;63185;45.642;13.764;2024-01-06T12:36:39;15.38;;;5.80;;
74656;SDS011;63185;45.642;13.764;2024-01-06T12:39:06;14.55;;;5.70;;
74656;SDS011;63185;45.642;13.764;2024-01-06T12:41:38;15.13;;;5.78;;
74656;SDS011;63185;45.642;13.764;2024-01-06T12:44:07;11.32;;;6.05;;
74656;SDS011;63185;45.642;13.764;2024-01-06T12:46:34;15.93;;;5.78;;
74656;SDS011;63185;45.642;13.764;2024-01-06T12:48:59;14.48;;;5.30;;
74656;SDS011;63185;45.642;13.764;2024-01-06T12:51:25;11.95;;;5.72;;
74656;SDS011;63185;45.642;13.764;2024-01-06T12:53:51;12.63;;;4.60;;
74656;SDS011;63185;45.642;13.764;2024-01-06T12:56:17;12.75;;;5.30;;
74656;SDS011;63185;45.642;13.764;2024-01-06T12:58:43;12.98;;;5.10;;
74656;SDS011;63185;45.642;13.764;2024-01-06T13:01:09;13.23;;;5.20;;
74656;SDS011;63185;45.642;13.764;2024-01-06T13:03:35;9.60;;;5.10;;
74656;SDS011;63185;45.642;13.764;2024-01-06T13:06:01;14.43;;;6.03;;
74656;SDS011;63185;45.642;13.764;2024-01-06T13:08:27;14.30;;;6.40;;
74656;SDS011;63185;45.642;13.764;2024-01-06T13:10:53;18.65;;;8.07;;
74656;SDS011;63185;45.642;13.764;2024-01-06T13:13:20;19.58;;;9.05;;
74656;SDS011;63185;45.642;13.764;2024-01-06T13:15:46;22.05;;;11.60;;
74656;SDS011;63185;45.642;13.764;2024-01-06T13:18:12;27.90;;;13.45;;
74656;SDS011;63185;45.642;13.764;2024-01-06T13:20:38;28.10;;;14.20;;
74656;SDS011;63185;45.642;13.764;2024-01-06T13:23:06;25.58;;;13.05;;
74656;SDS011;63185;45.642;13.764;2024-01-06T13:25:33;23.58;;;12.05;;
74656;SDS011;63185;45.642;13.764;2024-01-06T13:27:59;25.08;;;11.70;;
74656;SDS011;63185;45.642;13.764;2024-01-06T13:30:25;23.27;;;11.15;;
74656;SDS011;63185;45.642;13.764;2024-01-06T13:32:54;20.88;;;10.82;;
74656;SDS011;63185;45.642;13.764;2024-01-06T13:35:20;18.57;;;9.17;;
74656;SDS011;63185;45.642;13.764;2024-01-06T13:37:47;17.35;;;9.27;;
74656;SDS011;63185;45.642;13.764;2024-01-06T13:40:16;19.67;;;9.15;;
74656;SDS011;63185;45.642;13.764;2024-01-06T13:42:46;18.08;;;8.80;;
74656;SDS011;63185;45.642;13.764;2024-01-06T13:45:12;15.40;;;7.72;;
74656;SDS011;63185;45.642;13.764;2024-01-06T13:47:38;16.65;;;8.25;;
74656;SDS011;63185;45.642;13.764;2024-01-06T13:50:07;18.73;;;8.15;;
74656;SDS011;63185;45.642;13.764;2024-01-06T13:52:33;15.65;;;7.78;;
74656;SDS011;63185;45.642;13.764;2024-01-06T13:55:00;19.23;;;7.22;;
74656;SDS011;63185;45.642;13.764;2024-01-06T13:57:26;18.05;;;7.22;;
74656;SDS011;63185;45.642;13.764;2024-01-06T13:59:52;10.98;;;6.15;;
74656;SDS011;63185;45.642;13.764;2024-01-06T14:02:17;14.13;;;6.10;;
74656;SDS011;63185;45.642;13.764;2024-01-06T14:04:43;13.65;;;5.68;;
74656;SDS011;63185;45.642;13.764;2024-01-06T14:07:09;15.07;;;5.88;;
74656;SDS011;63185;45.642;13.764;2024-01-06T14:09:35;10.55;;;5.50;;
74656;SDS011;63185;45.642;13.764;2024-01-06T14:12:01;12.40;;;5.28;;
74656;SDS011;63185;45.642;13.764;2024-01-06T14:14:30;12.18;;;4.80;;
74656;SDS011;63185;45.642;13.764;2024-01-06T14:16:56;14.98;;;4.40;;
74656;SDS011;63185;45.642;13.764;2024-01-06T14:19:23;10.13;;;4.28;;
74656;SDS011;63185;45.642;13.764;2024-01-06T14:21:49;7.03;;;3.38;;
74656;SDS011;63185;45.642;13.764;2024-01-06T14:24:16;10.02;;;4.10;;
74656;SDS011;63185;45.642;13.764;2024-01-06T14:26:48;8.05;;;3.75;;
74656;SDS011;63185;45.642;13.764;2024-01-06T14:29:14;7.53;;;3.92;;
74656;SDS011;63185;45.642;13.764;2024-01-06T14:31:41;8.45;;;3.75;;
74656;SDS011;63185;45.642;13.764;2024-01-06T14:34:07;8.45;;;3.30;;
74656;SDS011;63185;45.642;13.764;2024-01-06T14:36:33;6.13;;;3.03;;